Hatsu Excel — VSXV3 — position and weather

sailwx.info

Track history (hours):
 
Tides and Currents Weather Stations Pressure Air Temp Water Temp Dewpoint Dewpoint Depression Visibility Wind Speed Wind Dir Waves Ship Positions

Hatsu Excel

Last reported at 2015-Jan-28 01:30 UTC. Time now 2015-Jan-29 16:29 UTC.
Position N 22°54' E 119°60'.

Type: Ship (hazmat cat D). MMSI: 235479000.

Date/timePositionNaut miles runAvg speedWind from/ knotsBaromVisibWave heightAir tempDewpointWater temp
2015-Jan-28 01:30N 22°54' E 119°60'1414.3
2015-Jan-28 00:33N 22°42' E 120°07'1312.6
2015-Jan-27 23:33N 22°33' E 120°16'3 2.5
2015-Jan-27 22:30N 22°33' E 120°19'0 0.0
2015-Jan-27 21:33N 22°33' E 120°19'0 0.0
2015-Jan-27 20:33N 22°33' E 120°19'0 0.0
2015-Jan-27 19:33N 22°33' E 120°19'0 0.0
2015-Jan-27 18:33N 22°33' E 120°19'0 0.0
2015-Jan-27 17:33N 22°33' E 120°19'0 0.0
2015-Jan-27 16:33N 22°33' E 120°19'0 0.0
2015-Jan-27 15:33N 22°33' E 120°19'0 0.0
2015-Jan-27 14:33N 22°33' E 120°19'0 0.0
2015-Jan-27 13:33N 22°33' E 120°19'0 0.0
2015-Jan-27 12:33N 22°33' E 120°19'0 0.0
2015-Jan-27 11:33N 22°33' E 120°19'0 0.0
2015-Jan-27 10:34N 22°33' E 120°19'0 0.0
2015-Jan-27 09:33N 22°33' E 120°19'0 0.0
2015-Jan-27 08:33N 22°33' E 120°19'0 0.0
2015-Jan-27 07:33N 22°33' E 120°19'0 0.0
2015-Jan-27 06:33N 22°33' E 120°19'0 0.0
2015-Jan-27 05:33N 22°33' E 120°19'0 0.0
2015-Jan-27 04:33N 22°33' E 120°19'0 0.0
2015-Jan-27 03:33N 22°33' E 120°19'0 0.0
2015-Jan-27 02:33N 22°33' E 120°19'0 0.0
2015-Jan-27 01:33N 22°33' E 120°19'0 0.0
2015-Jan-27 00:33N 22°33' E 120°19'0 0.0
2015-Jan-26 23:33N 22°33' E 120°19'0 0.0
2015-Jan-26 22:33N 22°33' E 120°19'0 0.0
2015-Jan-26 21:33N 22°33' E 120°19'0 0.2
2015-Jan-26 20:33N 22°33' E 120°19'8 8.3
2015-Jan-26 19:33N 22°32' E 120°10'1514.7
2015-Jan-26 18:33N 22°30' E 119°55'30420.2
2015-Jan-26 03:28N 22°08' E 114°27'2211.7
2015-Jan-26 01:33N 22°18' E 114°06'3 2.5
2015-Jan-26 00:32N 22°20' E 114°08'0 0.0
2015-Jan-25 23:29N 22°20' E 114°08'0 0.0
2015-Jan-25 22:29N 22°20' E 114°08'0 0.0
2015-Jan-25 21:32N 22°20' E 114°08'0 0.0
2015-Jan-25 20:26N 22°20' E 114°08'0 0.0
2015-Jan-25 19:32N 22°20' E 114°08'0 0.0
2015-Jan-25 18:29N 22°20' E 114°08'0 0.0
2015-Jan-25 17:32N 22°20' E 114°08'0 0.0
2015-Jan-25 16:32N 22°20' E 114°08'0 0.0
2015-Jan-25 15:32N 22°20' E 114°08'0 0.1
2015-Jan-25 14:32N 22°20' E 114°08'0 0.0
2015-Jan-25 13:32N 22°20' E 114°08'0 0.1
2015-Jan-25 12:32N 22°20' E 114°08'0 0.0
2015-Jan-25 11:32N 22°20' E 114°08'0 0.0
2015-Jan-25 10:26N 22°20' E 114°08'0 0.0
2015-Jan-25 09:32N 22°20' E 114°08'0 0.2
2015-Jan-25 08:33N 22°20' E 114°07'8 6.7
2015-Jan-25 07:25N 22°13' E 114°10'6 7.4
2015-Jan-25 06:33N 22°09' E 114°15'9 9.2
2015-Jan-25 05:33N 22°11' E 114°25'9 9.4
2015-Jan-25 04:33N 22°19' E 114°30'2 1.5
2015-Jan-25 03:30N 22°19' E 114°32'2010.3
2015-Jan-25 01:33N 22°34' E 114°17'1 1.1
2015-Jan-25 00:28N 22°34' E 114°16'0 0.0
2015-Jan-24 23:28N 22°34' E 114°16'0 0.0
2015-Jan-24 22:28N 22°34' E 114°16'0 0.0
2015-Jan-24 21:28N 22°34' E 114°16'0 0.1
2015-Jan-24 20:28N 22°34' E 114°16'0 0.1
2015-Jan-24 19:22N 22°34' E 114°16'0 0.0
2015-Jan-24 18:28N 22°34' E 114°16'0 0.0
2015-Jan-24 17:22N 22°34' E 114°16'0 0.1
2015-Jan-24 16:22N 22°34' E 114°16'0 0.1
2015-Jan-24 15:22N 22°34' E 114°16'0 0.0
2015-Jan-24 14:32N 22°34' E 114°16'20 6.5
2015-Jan-24 11:31N 22°19' E 114°29'1818.4
2015-Jan-24 10:33N 22°02' E 114°22'  
2015-Jan-21 11:17N 01°15' E 104°11'1620.6
2015-Jan-21 10:32N 01°13' E 103°55'74 1.9
2015-Jan-19 20:31N 01°39' E 102°46'2019.0
2015-Jan-19 19:28N 01°48' E 102°29'  
Track history (hours):
 
Tides and Currents Weather Stations Pressure Air Temp Water Temp Dewpoint Dewpoint Depression Visibility Wind Speed Wind Dir Waves Ship Positions

Hatsu Excel

Last reported at 2015-Jan-28 01:30 UTC. Time now 2015-Jan-29 16:29 UTC.
Position N 22°54' E 119°60'.

Type: Ship (hazmat cat D). MMSI: 235479000.

Date/timePositionNaut miles runAvg speedWind from/ knotsBaromVisibWave heightAir tempDewpointWater temp
2015-Jan-28 01:30N 22°54' E 119°60'1414.3
2015-Jan-28 00:33N 22°42' E 120°07'1312.6
2015-Jan-27 23:33N 22°33' E 120°16'3 2.5
2015-Jan-27 22:30N 22°33' E 120°19'0 0.0
2015-Jan-27 21:33N 22°33' E 120°19'0 0.0
2015-Jan-27 20:33N 22°33' E 120°19'0 0.0
2015-Jan-27 19:33N 22°33' E 120°19'0 0.0
2015-Jan-27 18:33N 22°33' E 120°19'0 0.0
2015-Jan-27 17:33N 22°33' E 120°19'0 0.0
2015-Jan-27 16:33N 22°33' E 120°19'0 0.0
2015-Jan-27 15:33N 22°33' E 120°19'0 0.0
2015-Jan-27 14:33N 22°33' E 120°19'0 0.0
2015-Jan-27 13:33N 22°33' E 120°19'0 0.0
2015-Jan-27 12:33N 22°33' E 120°19'0 0.0
2015-Jan-27 11:33N 22°33' E 120°19'0 0.0
2015-Jan-27 10:34N 22°33' E 120°19'0 0.0
2015-Jan-27 09:33N 22°33' E 120°19'0 0.0
2015-Jan-27 08:33N 22°33' E 120°19'0 0.0
2015-Jan-27 07:33N 22°33' E 120°19'0 0.0
2015-Jan-27 06:33N 22°33' E 120°19'0 0.0
2015-Jan-27 05:33N 22°33' E 120°19'0 0.0
2015-Jan-27 04:33N 22°33' E 120°19'0 0.0
2015-Jan-27 03:33N 22°33' E 120°19'0 0.0
2015-Jan-27 02:33N 22°33' E 120°19'0 0.0
2015-Jan-27 01:33N 22°33' E 120°19'0 0.0
2015-Jan-27 00:33N 22°33' E 120°19'0 0.0
2015-Jan-26 23:33N 22°33' E 120°19'0 0.0
2015-Jan-26 22:33N 22°33' E 120°19'0 0.0
2015-Jan-26 21:33N 22°33' E 120°19'0 0.2
2015-Jan-26 20:33N 22°33' E 120°19'8 8.3
2015-Jan-26 19:33N 22°32' E 120°10'1514.7
2015-Jan-26 18:33N 22°30' E 119°55'30420.2
2015-Jan-26 03:28N 22°08' E 114°27'2211.7
2015-Jan-26 01:33N 22°18' E 114°06'3 2.5
2015-Jan-26 00:32N 22°20' E 114°08'0 0.0
2015-Jan-25 23:29N 22°20' E 114°08'0 0.0
2015-Jan-25 22:29N 22°20' E 114°08'0 0.0
2015-Jan-25 21:32N 22°20' E 114°08'0 0.0
2015-Jan-25 20:26N 22°20' E 114°08'0 0.0
2015-Jan-25 19:32N 22°20' E 114°08'0 0.0
2015-Jan-25 18:29N 22°20' E 114°08'0 0.0
2015-Jan-25 17:32N 22°20' E 114°08'0 0.0
2015-Jan-25 16:32N 22°20' E 114°08'0 0.0
2015-Jan-25 15:32N 22°20' E 114°08'0 0.1
2015-Jan-25 14:32N 22°20' E 114°08'0 0.0
2015-Jan-25 13:32N 22°20' E 114°08'0 0.1
2015-Jan-25 12:32N 22°20' E 114°08'0 0.0
2015-Jan-25 11:32N 22°20' E 114°08'0 0.0
2015-Jan-25 10:26N 22°20' E 114°08'0 0.0
2015-Jan-25 09:32N 22°20' E 114°08'0 0.2
2015-Jan-25 08:33N 22°20' E 114°07'8 6.7
2015-Jan-25 07:25N 22°13' E 114°10'6 7.4
2015-Jan-25 06:33N 22°09' E 114°15'9 9.2
2015-Jan-25 05:33N 22°11' E 114°25'9 9.4
2015-Jan-25 04:33N 22°19' E 114°30'2 1.5
2015-Jan-25 03:30N 22°19' E 114°32'2010.3
2015-Jan-25 01:33N 22°34' E 114°17'1 1.1
2015-Jan-25 00:28N 22°34' E 114°16'0 0.0
2015-Jan-24 23:28N 22°34' E 114°16'0 0.0
2015-Jan-24 22:28N 22°34' E 114°16'0 0.0
2015-Jan-24 21:28N 22°34' E 114°16'0 0.1
2015-Jan-24 20:28N 22°34' E 114°16'0 0.1
2015-Jan-24 19:22N 22°34' E 114°16'0 0.0
2015-Jan-24 18:28N 22°34' E 114°16'0 0.0
2015-Jan-24 17:22N 22°34' E 114°16'0 0.1
2015-Jan-24 16:22N 22°34' E 114°16'0 0.1
2015-Jan-24 15:22N 22°34' E 114°16'0 0.0
2015-Jan-24 14:32N 22°34' E 114°16'20 6.5
2015-Jan-24 11:31N 22°19' E 114°29'1818.4
2015-Jan-24 10:33N 22°02' E 114°22'  
2015-Jan-21 11:17N 01°15' E 104°11'1620.6
2015-Jan-21 10:32N 01°13' E 103°55'74 1.9
2015-Jan-19 20:31N 01°39' E 102°46'2019.0
2015-Jan-19 19:28N 01°48' E 102°29'  

Dump ship's entire track history